KP68

Eureka Airport

Nevada, USA
METAR KP68 120853Z AUTO 23005KT M07/M08 A3004 RMK AO1 SLP193 T10671078 56021
Observed Flight Rules
Dec-12 @ 08:53 UTC (52 minutes ago)
Wind
230° at 5 knots
Temperatures Readings
Current -7°C / 19°F
Dewpoint -8°C / 18°F
Humidity 93%
Altimeter 30.04" Hg
Pressure 1019.3 hPa
Elevation 1809
METAR KP68 120853Z AUTO 23005KT M07/M08 A3004 RMK AO1 SLP193 T10671078 56021
Observed Flight Rules
Dec-12 @ 08:53 UTC
(52 minutes ago)
Wind
230° at 5 knots
Temperature Dewpoint
-7°C / 19°F -8°C / 18°F
Humidity Altimeter Pressure
93% 30.04" Hg 1019.3 hPa